createdAt,value
2022-12-31T00:01:49.363Z,99413.97
2022-12-31T00:04:17.497Z,99417.50
2022-12-31T00:06:46.010Z,99432.41
2022-12-31T00:09:13.914Z,99427.53
2022-12-31T00:11:41.807Z,99427.03
2022-12-31T00:14:11.043Z,99433.31
2022-12-31T00:16:41.295Z,99422.91
2022-12-31T00:19:12.281Z,99411.31
2022-12-31T00:21:40.793Z,99432.41
2022-12-31T00:24:09.193Z,99431.69
2022-12-31T00:26:37.087Z,99423.88
2022-12-31T00:29:06.239Z,99447.88
2022-12-31T00:31:37.517Z,99435.75
2022-12-31T00:34:06.052Z,99438.53
2022-12-31T00:36:35.974Z,99412.41
2022-12-31T00:39:05.056Z,99442.13
2022-12-31T00:41:33.546Z,99438.53
2022-12-31T00:44:02.080Z,99451.75
2022-12-31T00:46:30.017Z,99453.31
2022-12-31T00:48:59.264Z,99459.50
2022-12-31T00:51:27.498Z,99465.44
2022-12-31T00:53:56.164Z,99473.19
2022-12-31T00:56:26.149Z,99477.50
2022-12-31T00:58:54.419Z,99479.38
2022-12-31T01:01:24.820Z,99471.56
2022-12-31T01:03:55.502Z,99467.13
2022-12-31T01:06:25.134Z,99479.25
2022-12-31T01:08:53.713Z,99487.84
2022-12-31T01:11:22.627Z,99488.72
2022-12-31T01:13:53.333Z,99478.47
2022-12-31T01:16:23.036Z,99508.13
2022-12-31T01:18:51.699Z,99511.88
2022-12-31T01:21:21.584Z,99512.53
2022-12-31T01:23:51.552Z,99519.28
2022-12-31T01:26:20.230Z,99535.69
2022-12-31T01:28:48.437Z,99538.09
2022-12-31T01:31:17.916Z,99539.72
2022-12-31T01:33:46.691Z,99539.16
2022-12-31T01:36:19.067Z,99551.19
2022-12-31T01:38:52.976Z,99552.50
2022-12-31T01:41:25.611Z,99519.25
2022-12-31T01:43:56.510Z,99558.09
2022-12-31T01:46:30.169Z,99549.38
2022-12-31T01:49:03.405Z,99543.25
2022-12-31T01:51:34.403Z,99539.84
2022-12-31T01:54:06.148Z,99549.38
2022-12-31T01:56:34.933Z,99536.53
2022-12-31T01:59:07.207Z,99540.91
2022-12-31T02:01:37.971Z,99563.47
2022-12-31T02:04:10.624Z,99552.88
2022-12-31T02:06:41.860Z,99541.03
2022-12-31T02:09:13.022Z,99547.16
2022-12-31T02:11:40.829Z,99537.88
2022-12-31T02:14:13.307Z,99546.75
2022-12-31T02:16:48.414Z,99547.72
2022-12-31T02:19:52.096Z,99540.94
2022-12-31T02:22:30.551Z,99508.91
2022-12-31T02:25:20.943Z,99548.34
2022-12-31T02:27:59.124Z,99543.84
2022-12-31T02:30:32.092Z,99545.53
2022-12-31T02:33:14.827Z,99554.25
2022-12-31T02:35:49.654Z,99545.53
2022-12-31T02:38:21.957Z,99554.25
2022-12-31T02:40:50.355Z,99543.16
2022-12-31T02:43:18.160Z,99554.25
2022-12-31T02:45:51.443Z,99554.03
2022-12-31T02:48:33.950Z,99553.97
2022-12-31T02:51:13.239Z,99558.44
2022-12-31T02:53:53.102Z,99548.34
2022-12-31T02:56:27.216Z,99550.06
2022-12-31T02:59:20.776Z,99562.50
2022-12-31T03:02:19.520Z,99560.88
2022-12-31T03:04:50.659Z,99569.53
2022-12-31T03:07:22.151Z,99587.81
2022-12-31T03:09:50.704Z,99576.50
2022-12-31T03:12:38.657Z,99577.41
2022-12-31T03:15:19.978Z,99587.03
2022-12-31T03:17:55.179Z,99585.47
2022-12-31T03:20:43.706Z,99579.38
2022-12-31T03:23:15.253Z,99579.59
2022-12-31T03:25:43.676Z,99579.72
2022-12-31T03:28:13.702Z,99575.47
2022-12-31T03:30:43.328Z,99581.63
2022-12-31T03:33:12.833Z,99575.56
2022-12-31T03:35:42.900Z,99562.06
2022-12-31T03:38:10.922Z,99578.25
2022-12-31T03:40:40.637Z,99582.63
2022-12-31T03:43:08.926Z,99584.19
2022-12-31T03:45:37.233Z,99571.31
2022-12-31T03:48:06.963Z,99578.25
2022-12-31T03:50:36.670Z,99520.34
2022-12-31T03:53:04.528Z,99569.66
2022-12-31T03:55:32.313Z,99564.56
2022-12-31T03:58:00.217Z,99567.06
2022-12-31T04:00:28.222Z,99585.28
2022-12-31T04:02:56.119Z,99574.03
2022-12-31T04:05:24.441Z,99576.56
2022-12-31T04:07:55.629Z,99571.47
2022-12-31T04:10:23.401Z,99574.97
2022-12-31T04:12:51.188Z,99575.78
2022-12-31T04:15:20.410Z,99537.44
2022-12-31T04:17:49.388Z,99573.28
2022-12-31T04:20:17.900Z,99569.84
2022-12-31T04:22:45.679Z,99571.59
2022-12-31T04:25:14.882Z,99564.56
2022-12-31T04:27:44.537Z,99572.38
2022-12-31T04:30:14.223Z,99569.09
2022-12-31T04:32:42.820Z,99575.78
2022-12-31T04:35:11.467Z,99565.53
2022-12-31T04:37:39.403Z,99558.56
2022-12-31T04:40:08.902Z,99544.38
2022-12-31T04:42:38.365Z,99543.66
2022-12-31T04:45:07.123Z,99569.88
2022-12-31T04:47:34.947Z,99565.53
2022-12-31T04:50:02.726Z,99567.22
2022-12-31T04:52:30.570Z,99580.41
2022-12-31T04:54:58.336Z,99584.88
2022-12-31T04:57:26.150Z,99590.09
2022-12-31T04:59:55.322Z,99589.22
2022-12-31T05:02:23.215Z,99584.03
2022-12-31T05:04:51.112Z,99566.97
2022-12-31T05:07:18.860Z,99586.47
2022-12-31T05:09:46.664Z,99582.09
2022-12-31T05:12:14.421Z,99584.03
2022-12-31T05:14:42.242Z,99578.13
2022-12-31T05:17:11.382Z,99582.38
2022-12-31T05:19:39.174Z,99583.91
2022-12-31T05:22:23.789Z,99592.53
2022-12-31T05:24:52.351Z,99589.00
2022-12-31T05:27:20.156Z,99587.09
2022-12-31T05:29:48.163Z,99589.69
2022-12-31T05:32:18.069Z,99582.00
2022-12-31T05:34:45.972Z,99579.41
2022-12-31T05:37:13.958Z,99586.25
2022-12-31T05:39:41.705Z,99584.59
2022-12-31T05:42:09.572Z,99587.09
2022-12-31T05:44:37.317Z,99600.00
2022-12-31T05:47:05.273Z,99605.97
2022-12-31T05:49:34.459Z,99602.59
2022-12-31T05:52:02.465Z,99587.31
2022-12-31T05:54:30.302Z,99603.50
2022-12-31T05:56:58.065Z,99612.22
2022-12-31T05:59:26.028Z,99628.81
2022-12-31T06:01:53.823Z,99632.94
2022-12-31T06:04:21.676Z,99641.47
2022-12-31T06:06:51.191Z,99646.72
2022-12-31T06:09:20.339Z,99639.16
2022-12-31T06:11:48.652Z,99640.75
2022-12-31T06:14:16.781Z,99641.72
2022-12-31T06:16:44.617Z,99646.72
2022-12-31T06:19:12.372Z,99640.88
2022-12-31T06:21:40.159Z,99649.28
2022-12-31T06:24:09.662Z,99654.44
2022-12-31T06:26:37.980Z,99651.72
2022-12-31T06:29:06.101Z,99652.56
2022-12-31T06:31:34.029Z,99649.97
2022-12-31T06:34:02.046Z,99659.41
2022-12-31T06:36:29.991Z,99650.81
2022-12-31T06:38:57.824Z,99666.31
2022-12-31T06:41:26.990Z,99669.72
2022-12-31T06:43:54.826Z,99652.28
2022-12-31T06:46:22.631Z,99656.66
2022-12-31T06:48:50.614Z,99649.91
2022-12-31T06:51:20.640Z,99659.53
2022-12-31T06:53:50.300Z,99653.38
2022-12-31T06:56:20.847Z,99643.69
2022-12-31T06:58:50.799Z,99636.03
2022-12-31T07:01:45.157Z,99630.78
2022-12-31T07:04:48.932Z,99535.94
2022-12-31T07:07:23.095Z,99596.13
2022-12-31T07:10:00.247Z,99629.50
2022-12-31T07:12:37.408Z,99643.22
2022-12-31T07:15:15.705Z,99643.03
2022-12-31T07:17:49.565Z,99635.03
2022-12-31T07:20:19.675Z,99623.03
2022-12-31T07:22:48.198Z,99626.91
2022-12-31T07:25:17.510Z,99637.22
2022-12-31T07:27:58.681Z,99628.50
2022-12-31T07:30:35.869Z,99635.34
2022-12-31T07:33:22.928Z,99641.31
2022-12-31T07:36:02.648Z,99651.59
2022-12-31T07:38:38.533Z,99662.75
2022-12-31T07:41:14.403Z,99662.75
2022-12-31T07:43:53.935Z,99673.91
2022-12-31T07:46:32.522Z,99673.78
2022-12-31T07:49:01.111Z,99673.00
2022-12-31T07:51:29.643Z,99672.03
2022-12-31T07:53:57.415Z,99675.41
2022-12-31T07:56:25.238Z,99668.56
2022-12-31T07:59:06.410Z,99681.28
2022-12-31T08:01:44.982Z,99688.31
2022-12-31T08:04:22.268Z,99684.75
2022-12-31T08:07:01.052Z,99690.69
2022-12-31T08:09:43.949Z,99684.31
2022-12-31T08:12:12.007Z,99688.50
2022-12-31T08:14:45.205Z,99682.47
2022-12-31T08:17:16.339Z,99664.56
2022-12-31T08:19:45.774Z,99689.28
2022-12-31T08:22:28.446Z,99659.56
2022-12-31T08:25:08.868Z,99694.13
2022-12-31T08:27:47.863Z,99688.66
2022-12-31T08:30:18.615Z,99695.44
2022-12-31T08:32:56.633Z,99690.97
2022-12-31T08:35:33.499Z,99671.06
2022-12-31T08:38:11.915Z,99669.25
2022-12-31T08:40:48.969Z,99680.25
2022-12-31T08:43:33.610Z,99674.00
2022-12-31T08:46:01.991Z,99675.75
2022-12-31T08:48:38.835Z,99668.34
2022-12-31T08:51:20.546Z,99643.66
2022-12-31T08:53:49.206Z,99688.94
2022-12-31T08:56:27.578Z,99692.50
2022-12-31T08:59:06.096Z,99682.16
2022-12-31T09:01:43.441Z,99683.88
2022-12-31T09:04:23.696Z,99683.72
2022-12-31T09:06:58.940Z,99690.00
2022-12-31T09:09:38.343Z,99695.22
2022-12-31T09:12:15.476Z,99705.66
2022-12-31T09:14:47.013Z,99702.25
2022-12-31T09:17:47.424Z,99705.38
2022-12-31T09:20:26.102Z,99701.06
2022-12-31T09:22:55.538Z,99703.78
2022-12-31T09:25:25.320Z,99685.69
2022-12-31T09:28:05.268Z,99574.31
2022-12-31T09:30:43.404Z,99701.47
2022-12-31T09:33:16.513Z,99706.81
2022-12-31T09:35:53.418Z,99694.94
2022-12-31T09:38:28.865Z,99672.50
2022-12-31T09:41:14.460Z,99694.53
2022-12-31T09:44:30.793Z,99706.50
2022-12-31T09:47:41.049Z,99701.97
2022-12-31T09:50:33.476Z,99685.81
2022-12-31T09:53:39.504Z,99700.66
2022-12-31T09:56:18.228Z,99694.13
2022-12-31T09:58:52.130Z,99707.03
2022-12-31T10:01:43.766Z,99710.63
2022-12-31T10:04:26.700Z,99719.72
2022-12-31T10:07:07.696Z,99683.94
2022-12-31T10:10:00.955Z,99681.78
2022-12-31T10:12:43.556Z,99690.34
2022-12-31T10:15:42.482Z,99663.59
2022-12-31T10:18:25.649Z,99672.44
2022-12-31T10:21:05.513Z,99667.97
2022-12-31T10:23:56.437Z,99630.50
2022-12-31T10:26:48.474Z,99647.38
2022-12-31T10:29:32.229Z,99659.44
2022-12-31T10:32:15.603Z,99651.91
2022-12-31T10:34:54.670Z,99657.88
2022-12-31T10:37:29.293Z,99661.66
2022-12-31T10:40:19.142Z,99661.53
2022-12-31T10:43:29.046Z,99620.06
2022-12-31T10:46:31.995Z,99642.69
2022-12-31T10:49:41.781Z,99637.75
2022-12-31T10:52:41.501Z,99661.38
2022-12-31T10:55:37.742Z,99687.34
2022-12-31T10:58:42.219Z,99563.00
2022-12-31T11:01:19.794Z,99666.72
2022-12-31T11:04:25.416Z,99672.31
2022-12-31T11:07:23.253Z,99656.31
2022-12-31T11:10:16.589Z,99686.31
2022-12-31T11:13:11.257Z,99646.50
2022-12-31T11:16:17.353Z,99681.00
2022-12-31T11:18:58.860Z,99688.59
2022-12-31T11:21:42.038Z,99677.50
2022-12-31T11:24:19.962Z,99681.00
2022-12-31T11:27:11.748Z,99669.56
2022-12-31T11:29:58.092Z,99667.34
2022-12-31T11:32:45.348Z,99624.19
2022-12-31T11:35:33.519Z,99662.19
2022-12-31T11:38:15.616Z,99633.31
2022-12-31T11:40:55.988Z,99644.31
2022-12-31T11:43:29.874Z,99638.06
2022-12-31T11:46:18.985Z,99631.44
2022-12-31T11:48:58.879Z,99603.47
2022-12-31T11:51:52.538Z,99623.59
2022-12-31T11:54:49.232Z,99600.31
2022-12-31T11:57:25.410Z,99595.38
2022-12-31T12:00:00.348Z,99539.41
2022-12-31T12:02:30.777Z,99591.69
2022-12-31T12:05:06.575Z,99575.38
2022-12-31T12:07:39.795Z,99608.06
2022-12-31T12:10:23.513Z,99603.59
2022-12-31T12:12:52.351Z,99596.50
2022-12-31T12:15:24.659Z,99590.50
2022-12-31T12:17:55.699Z,99581.94
2022-12-31T12:20:32.047Z,99557.19
2022-12-31T12:23:03.451Z,99566.88
2022-12-31T12:25:39.273Z,99570.63
2022-12-31T12:28:21.505Z,99541.41
2022-12-31T12:30:56.113Z,99552.25
2022-12-31T12:33:24.424Z,99551.47
2022-12-31T12:35:52.261Z,99552.19
2022-12-31T12:38:23.519Z,99546.81
2022-12-31T12:40:57.681Z,99542.59
2022-12-31T12:43:29.205Z,99527.47
2022-12-31T12:46:01.775Z,99555.34
2022-12-31T12:48:36.837Z,99545.53
2022-12-31T12:51:21.928Z,99486.69
2022-12-31T12:54:02.771Z,99527.34
2022-12-31T12:56:41.969Z,99534.00
2022-12-31T12:59:33.320Z,99499.75
2022-12-31T13:02:16.096Z,99515.72
2022-12-31T13:04:58.915Z,99535.03
2022-12-31T13:07:38.832Z,99542.97
2022-12-31T13:10:31.466Z,99512.34
2022-12-31T13:13:23.720Z,99541.16
2022-12-31T13:16:03.162Z,99532.31
2022-12-31T13:18:44.376Z,99535.41
2022-12-31T13:21:27.793Z,99535.06
2022-12-31T13:24:02.671Z,99542.53
2022-12-31T13:26:37.011Z,99524.34
2022-12-31T13:29:07.020Z,99550.94
2022-12-31T13:31:38.673Z,99556.47
2022-12-31T13:34:14.251Z,99553.34
2022-12-31T13:36:46.003Z,99539.56
2022-12-31T13:39:17.854Z,99581.78
2022-12-31T13:41:54.141Z,99558.22
2022-12-31T13:44:30.087Z,99574.94
2022-12-31T13:47:03.485Z,99586.94
2022-12-31T13:49:36.954Z,99551.19
2022-12-31T13:52:16.168Z,99581.84
2022-12-31T13:54:52.636Z,99554.66
2022-12-31T13:57:42.533Z,99570.50
2022-12-31T14:00:20.921Z,99572.75
2022-12-31T14:02:57.287Z,99544.03
2022-12-31T14:05:31.772Z,99590.59
2022-12-31T14:08:01.770Z,99557.56
2022-12-31T14:10:42.752Z,99587.56
2022-12-31T14:13:34.398Z,99603.22
2022-12-31T14:16:12.536Z,99607.41
2022-12-31T14:18:47.428Z,99606.34
2022-12-31T14:21:22.099Z,99586.75
2022-12-31T14:23:55.851Z,99562.03
2022-12-31T14:26:29.089Z,99606.59
2022-12-31T14:29:12.143Z,99601.88
2022-12-31T14:32:00.921Z,99610.31
2022-12-31T14:34:36.828Z,99619.94
2022-12-31T14:37:14.169Z,99580.53
2022-12-31T14:39:54.840Z,99582.81
2022-12-31T14:42:33.954Z,99598.47
2022-12-31T14:45:19.169Z,99591.44
2022-12-31T14:47:55.769Z,99611.88
2022-12-31T14:50:26.169Z,99591.28
2022-12-31T14:52:56.288Z,99573.75
2022-12-31T14:55:29.986Z,99619.72
2022-12-31T14:58:27.293Z,99601.88
2022-12-31T15:00:55.758Z,99626.66
2022-12-31T15:03:27.336Z,99606.53
2022-12-31T15:06:01.090Z,99600.38
2022-12-31T15:08:51.741Z,99616.47
2022-12-31T15:11:32.849Z,99608.88
2022-12-31T15:14:24.183Z,99629.25
2022-12-31T15:17:00.278Z,99629.97
2022-12-31T15:19:55.061Z,99612.31
2022-12-31T15:22:37.051Z,99626.50
2022-12-31T15:25:20.768Z,99632.06
2022-12-31T15:27:49.957Z,99629.69
2022-12-31T15:30:34.900Z,99645.91
2022-12-31T15:33:07.605Z,99655.63
2022-12-31T15:35:47.441Z,99623.28
2022-12-31T15:38:36.939Z,99629.69
2022-12-31T15:41:16.931Z,99634.59
2022-12-31T15:43:49.720Z,99672.88
2022-12-31T15:46:20.061Z,99658.84
2022-12-31T15:48:56.564Z,99665.75
2022-12-31T15:51:29.892Z,99674.56
2022-12-31T15:54:00.801Z,99667.53
2022-12-31T15:56:35.733Z,99672.09
2022-12-31T15:59:08.991Z,99672.88
2022-12-31T16:01:38.030Z,99697.44
2022-12-31T16:04:15.691Z,99689.81
2022-12-31T16:06:48.967Z,99692.50
2022-12-31T16:09:22.678Z,99709.44
2022-12-31T16:11:51.452Z,99681.47
2022-12-31T16:14:24.625Z,99702.81
2022-12-31T16:16:54.745Z,99721.16
2022-12-31T16:19:33.519Z,99732.16
2022-12-31T16:22:07.672Z,99719.53
2022-12-31T16:24:48.864Z,99715.59
2022-12-31T16:27:26.119Z,99716.19
2022-12-31T16:30:00.448Z,99713.25
2022-12-31T16:32:36.156Z,99720.19
2022-12-31T16:35:23.789Z,99726.19
2022-12-31T16:38:16.375Z,99718.53
2022-12-31T16:40:45.292Z,99750.59
2022-12-31T16:43:26.714Z,99737.13
2022-12-31T16:45:57.515Z,99728.78
2022-12-31T16:48:26.477Z,99754.50
2022-12-31T16:50:57.393Z,99747.19
2022-12-31T16:53:27.820Z,99755.16
2022-12-31T16:55:59.508Z,99719.56
2022-12-31T16:58:31.609Z,99751.09
2022-12-31T17:01:09.926Z,99750.53
2022-12-31T17:03:41.124Z,99752.94
2022-12-31T17:06:16.659Z,99743.53
2022-12-31T17:08:46.441Z,99753.19
2022-12-31T17:11:24.198Z,99744.56
2022-12-31T17:13:57.929Z,99724.53
2022-12-31T17:16:27.161Z,99727.81
2022-12-31T17:18:55.019Z,99744.44
2022-12-31T17:21:27.018Z,99734.50
2022-12-31T17:23:57.020Z,99750.50
2022-12-31T17:26:27.546Z,99766.16
2022-12-31T17:28:57.513Z,99723.59
2022-12-31T17:31:37.517Z,99773.09
2022-12-31T17:34:19.988Z,99768.94
2022-12-31T17:36:58.445Z,99769.00
2022-12-31T17:39:27.240Z,99784.03
2022-12-31T17:41:58.418Z,99767.56
2022-12-31T17:44:29.238Z,99768.84
2022-12-31T17:46:57.280Z,99779.59
2022-12-31T17:49:30.952Z,99763.28
2022-12-31T17:52:00.169Z,99786.63
2022-12-31T17:54:27.938Z,99780.72
2022-12-31T17:56:55.930Z,99789.47
2022-12-31T17:59:29.597Z,99773.94
2022-12-31T18:02:01.012Z,99780.63
2022-12-31T18:04:28.888Z,99785.22
2022-12-31T18:06:56.736Z,99770.78
2022-12-31T18:09:26.014Z,99789.47
2022-12-31T18:11:58.225Z,99788.78
2022-12-31T18:14:29.134Z,99791.28
2022-12-31T18:16:56.936Z,99770.69
2022-12-31T18:19:54.393Z,99785.47
2022-12-31T18:22:16.327Z,99780.97
2022-12-31T18:24:45.536Z,99796.63
2022-12-31T18:27:17.478Z,99792.81
2022-12-31T18:29:45.701Z,99790.44
2022-12-31T18:32:21.134Z,99802.16
2022-12-31T18:34:49.317Z,99802.41
2022-12-31T18:37:21.967Z,99796.94
2022-12-31T18:39:51.565Z,99799.63
2022-12-31T18:42:20.177Z,99806.47
2022-12-31T18:44:48.171Z,99799.78
2022-12-31T18:47:17.538Z,99790.94
2022-12-31T18:49:48.023Z,99789.59
2022-12-31T18:52:17.616Z,99812.03
2022-12-31T18:54:45.532Z,99823.88
2022-12-31T18:57:16.543Z,99725.25
2022-12-31T18:59:44.427Z,99812.78
2022-12-31T19:02:17.653Z,99815.22
2022-12-31T19:04:45.886Z,99815.31
2022-12-31T19:07:13.986Z,99812.16
2022-12-31T19:09:46.369Z,99805.81
2022-12-31T19:12:16.452Z,99799.84
2022-12-31T19:14:45.536Z,99787.66
2022-12-31T19:17:13.368Z,99788.69
2022-12-31T19:19:41.158Z,99803.31
2022-12-31T19:22:14.577Z,99804.16
2022-12-31T19:24:42.412Z,99800.88
2022-12-31T19:27:11.136Z,99795.72
2022-12-31T19:29:40.253Z,99807.00
2022-12-31T19:32:08.090Z,99813.84
2022-12-31T19:34:35.959Z,99806.94
2022-12-31T19:37:03.803Z,99803.19
2022-12-31T19:39:31.614Z,99822.25
2022-12-31T19:41:59.894Z,99805.13
2022-12-31T19:44:28.130Z,99816.41
2022-12-31T19:46:57.324Z,99813.50
2022-12-31T19:49:25.117Z,99767.28
2022-12-31T19:51:52.925Z,99812.41
2022-12-31T19:54:20.771Z,99792.31
2022-12-31T19:56:48.516Z,99795.66
2022-12-31T19:59:16.322Z,99806.88
2022-12-31T20:01:44.313Z,99763.28
2022-12-31T20:04:13.728Z,99750.13
2022-12-31T20:06:41.507Z,99660.06
2022-12-31T20:09:09.340Z,99741.09
2022-12-31T20:11:37.224Z,99766.53
2022-12-31T20:14:05.110Z,99787.00
2022-12-31T20:16:34.039Z,99780.88
2022-12-31T20:19:02.210Z,99781.00
2022-12-31T20:21:31.459Z,99769.94
2022-12-31T20:23:59.284Z,99785.38
2022-12-31T20:26:27.822Z,99751.38
2022-12-31T20:28:55.646Z,99784.38
2022-12-31T20:31:26.064Z,99733.50
2022-12-31T20:33:55.322Z,99733.16
2022-12-31T20:36:23.897Z,99757.50
2022-12-31T20:38:53.243Z,99740.25
2022-12-31T20:41:24.001Z,99746.44
2022-12-31T20:43:52.186Z,99725.91
2022-12-31T20:46:21.673Z,99729.88
2022-12-31T20:48:51.072Z,99741.72
2022-12-31T20:51:20.122Z,99735.72
2022-12-31T20:53:49.095Z,99728.72
2022-12-31T20:56:18.905Z,99733.66
2022-12-31T20:58:46.755Z,99735.72
2022-12-31T21:01:16.209Z,99731.34
2022-12-31T21:06:34.399Z,99721.47
2022-12-31T21:09:07.011Z,99729.59
2022-12-31T21:11:53.958Z,99726.19
2022-12-31T21:14:21.945Z,99705.56
2022-12-31T21:16:49.791Z,99730.50
2022-12-31T21:19:17.614Z,99699.81
2022-12-31T21:21:45.429Z,99728.78
2022-12-31T21:24:13.636Z,99733.81
2022-12-31T21:26:44.647Z,99747.06
2022-12-31T21:29:12.417Z,99737.53
2022-12-31T21:31:40.232Z,99740.75
2022-12-31T21:34:09.519Z,99734.00
2022-12-31T21:36:37.329Z,99724.41
2022-12-31T21:39:05.128Z,99733.09
2022-12-31T21:41:50.315Z,99720.06
2022-12-31T21:44:20.812Z,99698.00
2022-12-31T21:47:25.062Z,99699.91
2022-12-31T21:49:36.770Z,99728.66
2022-12-31T21:52:22.308Z,99694.34
2022-12-31T21:55:07.628Z,99719.88
2022-12-31T21:57:59.229Z,99714.66
2022-12-31T22:00:43.175Z,99702.81
2022-12-31T22:03:26.970Z,99662.13
2022-12-31T22:05:58.480Z,99724.03
2022-12-31T22:08:26.936Z,99697.91
2022-12-31T22:10:55.056Z,99697.47
2022-12-31T22:13:23.357Z,99717.28
2022-12-31T22:16:01.793Z,99628.59
2022-12-31T22:18:34.049Z,99699.19
2022-12-31T22:21:03.243Z,99666.25
2022-12-31T22:23:31.809Z,99724.75
2022-12-31T22:25:59.627Z,99709.38
2022-12-31T22:28:38.206Z,99704.00
2022-12-31T22:31:09.022Z,99695.25
2022-12-31T22:33:36.856Z,99715.84
2022-12-31T22:36:07.118Z,99691.47
2022-12-31T22:38:35.567Z,99709.84
2022-12-31T22:41:05.969Z,99715.84
2022-12-31T22:43:34.758Z,99696.78
2022-12-31T22:46:12.498Z,99709.72
2022-12-31T22:48:41.613Z,99728.84
2022-12-31T22:51:10.491Z,99723.75
2022-12-31T22:53:39.639Z,99722.91
2022-12-31T22:56:07.905Z,99716.16
2022-12-31T22:58:36.046Z,99705.84
2022-12-31T23:01:06.973Z,99720.38
2022-12-31T23:03:36.474Z,99722.19
2022-12-31T23:06:04.246Z,99715.56
2022-12-31T23:08:32.056Z,99695.44
2022-12-31T23:11:05.657Z,99705.97
2022-12-31T23:13:56.552Z,99711.31
2022-12-31T23:16:42.370Z,99730.53
2022-12-31T23:19:29.820Z,99727.44
2022-12-31T23:22:15.493Z,99732.66
2022-12-31T23:24:43.485Z,99727.69
2022-12-31T23:27:11.593Z,99730.13
2022-12-31T23:29:46.779Z,99724.31
2022-12-31T23:32:15.788Z,99749.66
2022-12-31T23:34:46.015Z,99738.56
2022-12-31T23:37:14.743Z,99684.00
2022-12-31T23:39:42.970Z,99718.00
2022-12-31T23:42:10.792Z,99714.41
2022-12-31T23:44:38.646Z,99722.50
2022-12-31T23:47:06.613Z,99716.44
2022-12-31T23:49:34.910Z,99724.06
2022-12-31T23:52:04.928Z,99731.91
2022-12-31T23:54:32.749Z,99683.03
2022-12-31T23:57:00.572Z,99699.13
2022-12-31T23:59:28.421Z,99722.25
